sensor_id;sensor_type;location;lat;lon;timestamp;temperature;humidity
40151;DHT22;25866;52.420;10.640;2023-12-07T05:47:22;1.90;99.90
40151;DHT22;25866;52.420;10.640;2023-12-07T05:49:49;1.90;99.90
40151;DHT22;25866;52.420;10.640;2023-12-07T05:52:14;1.90;99.90
40151;DHT22;25866;52.420;10.640;2023-12-07T05:54:40;1.90;99.90
40151;DHT22;25866;52.420;10.640;2023-12-07T05:57:09;1.90;99.90
40151;DHT22;25866;52.420;10.640;2023-12-07T05:59:39;2.00;99.90
40151;DHT22;25866;52.420;10.640;2023-12-07T06:02:04;1.90;99.90
40151;DHT22;25866;52.420;10.640;2023-12-07T06:04:30;1.90;99.90
40151;DHT22;25866;52.420;10.640;2023-12-07T06:06:56;1.90;99.90
40151;DHT22;25866;52.420;10.640;2023-12-07T06:09:22;1.90;99.90
40151;DHT22;25866;52.420;10.640;2023-12-07T06:11:48;1.90;99.90
40151;DHT22;25866;52.420;10.640;2023-12-07T06:14:14;1.90;99.90
40151;DHT22;25866;52.420;10.640;2023-12-07T06:16:39;1.90;99.90
40151;DHT22;25866;52.420;10.640;2023-12-07T06:19:05;1.90;99.90
40151;DHT22;25866;52.420;10.640;2023-12-07T06:21:31;1.90;99.90
40151;DHT22;25866;52.420;10.640;2023-12-07T06:23:57;1.90;99.90
40151;DHT22;25866;52.420;10.640;2023-12-07T06:26:24;1.90;99.90
40151;DHT22;25866;52.420;10.640;2023-12-07T06:28:50;1.90;99.90
40151;DHT22;25866;52.420;10.640;2023-12-07T06:31:16;1.90;99.90
40151;DHT22;25866;52.420;10.640;2023-12-07T06:33:48;1.90;99.90
40151;DHT22;25866;52.420;10.640;2023-12-07T06:36:23;1.90;99.90
40151;DHT22;25866;52.420;10.640;2023-12-07T06:38:49;1.90;99.90
40151;DHT22;25866;52.420;10.640;2023-12-07T06:41:15;1.90;99.90
40151;DHT22;25866;52.420;10.640;2023-12-07T06:43:41;1.90;99.90
40151;DHT22;25866;52.420;10.640;2023-12-07T06:46:11;1.90;99.90
40151;DHT22;25866;52.420;10.640;2023-12-07T06:48:37;1.90;99.90
40151;DHT22;25866;52.420;10.640;2023-12-07T06:51:03;1.90;99.90
40151;DHT22;25866;52.420;10.640;2023-12-07T06:53:29;1.90;99.90
40151;DHT22;25866;52.420;10.640;2023-12-07T06:55:57;1.90;99.90
40151;DHT22;25866;52.420;10.640;2023-12-07T06:58:23;1.90;99.90
40151;DHT22;25866;52.420;10.640;2023-12-07T07:00:48;1.90;99.90
40151;DHT22;25866;52.420;10.640;2023-12-07T07:03:15;1.90;99.90
40151;DHT22;25866;52.420;10.640;2023-12-07T07:05:41;1.90;99.90
40151;DHT22;25866;52.420;10.640;2023-12-07T07:08:06;2.00;99.90
40151;DHT22;25866;52.420;10.640;2023-12-07T07:10:34;2.00;99.90
40151;DHT22;25866;52.420;10.640;2023-12-07T07:13:03;2.00;99.90
40151;DHT22;25866;52.420;10.640;2023-12-07T07:15:33;2.00;99.90
40151;DHT22;25866;52.420;10.640;2023-12-07T07:17:59;2.00;99.90
40151;DHT22;25866;52.420;10.640;2023-12-07T07:20:25;2.00;99.90
40151;DHT22;25866;52.420;10.640;2023-12-07T07:22:51;2.00;99.90
40151;DHT22;25866;52.420;10.640;2023-12-07T07:25:16;2.00;99.90
40151;DHT22;25866;52.420;10.640;2023-12-07T07:27:47;2.00;99.90
40151;DHT22;25866;52.420;10.640;2023-12-07T07:30:13;2.00;99.90
40151;DHT22;25866;52.420;10.640;2023-12-07T07:32:40;2.00;99.90
40151;DHT22;25866;52.420;10.640;2023-12-07T07:35:06;2.00;99.90
40151;DHT22;25866;52.420;10.640;2023-12-07T07:37:32;2.00;99.90
40151;DHT22;25866;52.420;10.640;2023-12-07T07:39:58;2.00;99.90
40151;DHT22;25866;52.420;10.640;2023-12-07T07:42:25;2.00;99.90
40151;DHT22;25866;52.420;10.640;2023-12-07T07:44:51;2.00;99.90
40151;DHT22;25866;52.420;10.640;2023-12-07T07:47:17;2.00;99.90
40151;DHT22;25866;52.420;10.640;2023-12-07T07:49:43;2.00;99.90
40151;DHT22;25866;52.420;10.640;2023-12-07T07:52:09;2.10;99.90
40151;DHT22;25866;52.420;10.640;2023-12-07T07:54:35;2.00;99.90
40151;DHT22;25866;52.420;10.640;2023-12-07T07:57:01;2.10;99.90
40151;DHT22;25866;52.420;10.640;2023-12-07T07:59:27;2.10;99.90
40151;DHT22;25866;52.420;10.640;2023-12-07T08:01:53;2.10;99.90
40151;DHT22;25866;52.420;10.640;2023-12-07T08:04:19;2.10;99.90
40151;DHT22;25866;52.420;10.640;2023-12-07T08:06:44;2.10;99.90
40151;DHT22;25866;52.420;10.640;2023-12-07T08:09:10;2.10;99.90
40151;DHT22;25866;52.420;10.640;2023-12-07T08:11:36;2.10;99.90
40151;DHT22;25866;52.420;10.640;2023-12-07T08:14:02;2.10;99.90
40151;DHT22;25866;52.420;10.640;2023-12-07T08:16:27;2.10;99.90
40151;DHT22;25866;52.420;10.640;2023-12-07T08:18:53;2.10;99.90
40151;DHT22;25866;52.420;10.640;2023-12-07T08:21:22;2.20;99.90
40151;DHT22;25866;52.420;10.640;2023-12-07T08:23:48;2.20;99.90
40151;DHT22;25866;52.420;10.640;2023-12-07T08:26:14;2.20;99.90
40151;DHT22;25866;52.420;10.640;2023-12-07T08:28:44;2.20;99.90
40151;DHT22;25866;52.420;10.640;2023-12-07T08:31:12;2.20;99.90
40151;DHT22;25866;52.420;10.640;2023-12-07T08:33:38;2.20;99.90
40151;DHT22;25866;52.420;10.640;2023-12-07T08:36:05;2.30;99.90
40151;DHT22;25866;52.420;10.640;2023-12-07T08:38:31;2.30;99.90
40151;DHT22;25866;52.420;10.640;2023-12-07T08:40:57;2.30;99.90
40151;DHT22;25866;52.420;10.640;2023-12-07T08:43:24;2.30;99.90
40151;DHT22;25866;52.420;10.640;2023-12-07T08:45:53;2.30;99.90
40151;DHT22;25866;52.420;10.640;2023-12-07T08:48:22;2.30;99.90
40151;DHT22;25866;52.420;10.640;2023-12-07T08:50:47;2.30;99.90
40151;DHT22;25866;52.420;10.640;2023-12-07T08:53:13;2.30;99.90
40151;DHT22;25866;52.420;10.640;2023-12-07T08:55:39;2.30;99.90
40151;DHT22;25866;52.420;10.640;2023-12-07T08:58:05;2.40;99.90
40151;DHT22;25866;52.420;10.640;2023-12-07T09:00:34;2.40;99.90
40151;DHT22;25866;52.420;10.640;2023-12-07T09:03:00;2.50;99.90
40151;DHT22;25866;52.420;10.640;2023-12-07T09:05:27;2.40;99.90
40151;DHT22;25866;52.420;10.640;2023-12-07T09:07:53;2.50;99.90
40151;DHT22;25866;52.420;10.640;2023-12-07T09:10:19;2.50;99.90
40151;DHT22;25866;52.420;10.640;2023-12-07T09:12:45;2.50;99.90
40151;DHT22;25866;52.420;10.640;2023-12-07T09:15:11;2.50;99.90
40151;DHT22;25866;52.420;10.640;2023-12-07T09:17:38;2.50;99.90
40151;DHT22;25866;52.420;10.640;2023-12-07T09:20:06;2.50;99.90
40151;DHT22;25866;52.420;10.640;2023-12-07T09:22:33;2.50;99.90
40151;DHT22;25866;52.420;10.640;2023-12-07T09:24:59;2.60;99.90
40151;DHT22;25866;52.420;10.640;2023-12-07T09:27:25;2.50;99.90
40151;DHT22;25866;52.420;10.640;2023-12-07T09:29:51;2.60;99.90
40151;DHT22;25866;52.420;10.640;2023-12-07T09:32:17;2.60;99.90
40151;DHT22;25866;52.420;10.640;2023-12-07T09:34:42;2.70;99.90
40151;DHT22;25866;52.420;10.640;2023-12-07T09:37:11;2.70;99.90
40151;DHT22;25866;52.420;10.640;2023-12-07T09:39:37;2.80;99.90
40151;DHT22;25866;52.420;10.640;2023-12-07T09:42:03;2.80;99.90
40151;DHT22;25866;52.420;10.640;2023-12-07T09:44:28;2.90;99.90
40151;DHT22;25866;52.420;10.640;2023-12-07T09:46:54;3.00;99.90
40151;DHT22;25866;52.420;10.640;2023-12-07T09:49:23;3.00;99.90
40151;DHT22;25866;52.420;10.640;2023-12-07T09:51:50;3.00;99.90
40151;DHT22;25866;52.420;10.640;2023-12-07T09:54:18;3.10;99.90
40151;DHT22;25866;52.420;10.640;2023-12-07T09:56:44;3.10;99.90
40151;DHT22;25866;52.420;10.640;2023-12-07T09:59:10;3.10;99.90
40151;DHT22;25866;52.420;10.640;2023-12-07T10:01:36;3.10;99.90
40151;DHT22;25866;52.420;10.640;2023-12-07T10:04:21;3.10;99.90
40151;DHT22;25866;52.420;10.640;2023-12-07T10:06:49;3.10;99.90
40151;DHT22;25866;52.420;10.640;2023-12-07T10:09:17;3.10;99.90
40151;DHT22;25866;52.420;10.640;2023-12-07T10:11:44;3.10;99.90
40151;DHT22;25866;52.420;10.640;2023-12-07T10:14:10;3.20;99.90
40151;DHT22;25866;52.420;10.640;2023-12-07T10:16:37;3.20;99.90
40151;DHT22;25866;52.420;10.640;2023-12-07T10:19:23;3.20;99.90
40151;DHT22;25866;52.420;10.640;2023-12-07T10:21:50;3.30;99.90
40151;DHT22;25866;52.420;10.640;2023-12-07T10:24:17;3.30;99.90
40151;DHT22;25866;52.420;10.640;2023-12-07T10:26:45;3.30;99.90
40151;DHT22;25866;52.420;10.640;2023-12-07T10:29:11;3.30;99.90
40151;DHT22;25866;52.420;10.640;2023-12-07T10:31:37;3.30;99.90
40151;DHT22;25866;52.420;10.640;2023-12-07T10:34:04;3.30;99.90
40151;DHT22;25866;52.420;10.640;2023-12-07T10:36:30;3.30;99.90
40151;DHT22;25866;52.420;10.640;2023-12-07T10:38:56;3.40;99.90
40151;DHT22;25866;52.420;10.640;2023-12-07T10:41:23;3.30;99.90
40151;DHT22;25866;52.420;10.640;2023-12-07T10:43:53;3.30;99.90
40151;DHT22;25866;52.420;10.640;2023-12-07T10:46:21;3.40;99.90
40151;DHT22;25866;52.420;10.640;2023-12-07T10:48:55;3.40;99.90
40151;DHT22;25866;52.420;10.640;2023-12-07T10:51:31;3.40;99.90
40151;DHT22;25866;52.420;10.640;2023-12-07T10:54:03;3.40;99.90
40151;DHT22;25866;52.420;10.640;2023-12-07T10:56:38;3.40;99.90
40151;DHT22;25866;52.420;10.640;2023-12-07T10:59:09;3.40;99.90
40151;DHT22;25866;52.420;10.640;2023-12-07T11:01:42;3.40;99.90
40151;DHT22;25866;52.420;10.640;2023-12-07T11:04:12;3.40;99.90
40151;DHT22;25866;52.420;10.640;2023-12-07T11:06:39;3.50;99.90
40151;DHT22;25866;52.420;10.640;2023-12-07T11:09:10;3.50;99.90
40151;DHT22;25866;52.420;10.640;2023-12-07T11:11:41;3.50;99.90
40151;DHT22;25866;52.420;10.640;2023-12-07T11:14:10;3.50;99.90
40151;DHT22;25866;52.420;10.640;2023-12-07T11:16:40;3.50;99.90
40151;DHT22;25866;52.420;10.640;2023-12-07T11:21:56;3.50;99.90
40151;DHT22;25866;52.420;10.640;2023-12-07T11:24:24;3.50;99.90
40151;DHT22;25866;52.420;10.640;2023-12-07T11:26:59;3.50;99.90
40151;DHT22;25866;52.420;10.640;2023-12-07T11:29:26;3.50;99.90
40151;DHT22;25866;52.420;10.640;2023-12-07T11:31:56;3.50;99.90
40151;DHT22;25866;52.420;10.640;2023-12-07T11:34:42;3.50;99.90
40151;DHT22;25866;52.420;10.640;2023-12-07T11:37:09;3.50;99.90
40151;DHT22;25866;52.420;10.640;2023-12-07T11:39:39;3.50;99.90
40151;DHT22;25866;52.420;10.640;2023-12-07T11:42:20;3.50;99.90
40151;DHT22;25866;52.420;10.640;2023-12-07T11:44:50;3.50;99.90
40151;DHT22;25866;52.420;10.640;2023-12-07T11:47:20;3.50;99.90
40151;DHT22;25866;52.420;10.640;2023-12-07T11:49:46;3.50;99.90
40151;DHT22;25866;52.420;10.640;2023-12-07T11:52:17;3.50;99.90
40151;DHT22;25866;52.420;10.640;2023-12-07T11:54:48;3.60;99.90
40151;DHT22;25866;52.420;10.640;2023-12-07T11:57:14;3.60;99.90
40151;DHT22;25866;52.420;10.640;2023-12-07T11:59:44;3.60;99.90
40151;DHT22;25866;52.420;10.640;2023-12-07T12:02:11;3.60;99.90
40151;DHT22;25866;52.420;10.640;2023-12-07T12:04:37;3.70;99.90
40151;DHT22;25866;52.420;10.640;2023-12-07T12:07:04;3.60;99.90
40151;DHT22;25866;52.420;10.640;2023-12-07T12:09:30;3.70;99.90
40151;DHT22;25866;52.420;10.640;2023-12-07T12:11:57;3.70;99.90
40151;DHT22;25866;52.420;10.640;2023-12-07T12:14:26;3.70;99.90
40151;DHT22;25866;52.420;10.640;2023-12-07T12:16:52;3.70;99.90
40151;DHT22;25866;52.420;10.640;2023-12-07T12:19:19;3.70;99.90
40151;DHT22;25866;52.420;10.640;2023-12-07T12:21:46;3.70;99.90
40151;DHT22;25866;52.420;10.640;2023-12-07T12:24:13;3.60;99.90
40151;DHT22;25866;52.420;10.640;2023-12-07T12:26:42;3.70;99.90
40151;DHT22;25866;52.420;10.640;2023-12-07T12:29:09;3.60;99.90
40151;DHT22;25866;52.420;10.640;2023-12-07T12:31:38;3.60;99.90
40151;DHT22;25866;52.420;10.640;2023-12-07T12:34:06;3.70;99.90
40151;DHT22;25866;52.420;10.640;2023-12-07T12:36:34;3.70;99.90
40151;DHT22;25866;52.420;10.640;2023-12-07T12:39:00;3.70;99.90
40151;DHT22;25866;52.420;10.640;2023-12-07T12:41:27;3.70;99.90
40151;DHT22;25866;52.420;10.640;2023-12-07T12:43:56;3.70;99.90
40151;DHT22;25866;52.420;10.640;2023-12-07T12:46:22;3.70;99.90
40151;DHT22;25866;52.420;10.640;2023-12-07T12:49:01;3.80;99.90
40151;DHT22;25866;52.420;10.640;2023-12-07T12:51:28;3.80;99.90
40151;DHT22;25866;52.420;10.640;2023-12-07T12:53:56;3.70;99.90
40151;DHT22;25866;52.420;10.640;2023-12-07T12:56:22;3.70;99.90
40151;DHT22;25866;52.420;10.640;2023-12-07T12:58:50;3.70;99.90
40151;DHT22;25866;52.420;10.640;2023-12-07T13:01:16;3.70;99.90
40151;DHT22;25866;52.420;10.640;2023-12-07T13:03:44;3.70;99.90
40151;DHT22;25866;52.420;10.640;2023-12-07T13:06:12;3.70;99.90
40151;DHT22;25866;52.420;10.640;2023-12-07T13:08:38;3.70;99.90
40151;DHT22;25866;52.420;10.640;2023-12-07T13:11:03;3.70;99.90
40151;DHT22;25866;52.420;10.640;2023-12-07T13:13:29;3.80;99.90
40151;DHT22;25866;52.420;10.640;2023-12-07T13:15:55;3.70;99.90
40151;DHT22;25866;52.420;10.640;2023-12-07T13:18:21;3.70;99.90
40151;DHT22;25866;52.420;10.640;2023-12-07T13:20:46;3.70;99.90
40151;DHT22;25866;52.420;10.640;2023-12-07T13:23:12;3.70;99.90
40151;DHT22;25866;52.420;10.640;2023-12-07T13:25:38;3.70;99.90
40151;DHT22;25866;52.420;10.640;2023-12-07T13:28:04;3.70;99.90
40151;DHT22;25866;52.420;10.640;2023-12-07T13:30:32;3.70;99.90
40151;DHT22;25866;52.420;10.640;2023-12-07T13:33:01;3.70;99.90
40151;DHT22;25866;52.420;10.640;2023-12-07T13:35:27;3.70;99.90
40151;DHT22;25866;52.420;10.640;2023-12-07T13:37:53;3.60;99.90
40151;DHT22;25866;52.420;10.640;2023-12-07T13:40:18;3.60;99.90
40151;DHT22;25866;52.420;10.640;2023-12-07T13:42:44;3.60;99.90
40151;DHT22;25866;52.420;10.640;2023-12-07T13:45:10;3.60;99.90
40151;DHT22;25866;52.420;10.640;2023-12-07T13:47:36;3.60;99.90
40151;DHT22;25866;52.420;10.640;2023-12-07T13:50:04;3.60;99.90
40151;DHT22;25866;52.420;10.640;2023-12-07T13:52:31;3.60;99.90
40151;DHT22;25866;52.420;10.640;2023-12-07T13:54:58;3.60;99.90
40151;DHT22;25866;52.420;10.640;2023-12-07T13:57:24;3.60;99.90
40151;DHT22;25866;52.420;10.640;2023-12-07T13:59:50;3.60;99.90
40151;DHT22;25866;52.420;10.640;2023-12-07T14:02:16;3.60;99.90
40151;DHT22;25866;52.420;10.640;2023-12-07T14:04:43;3.60;99.90
40151;DHT22;25866;52.420;10.640;2023-12-07T14:07:10;3.50;99.90
40151;DHT22;25866;52.420;10.640;2023-12-07T14:09:37;3.60;99.90
40151;DHT22;25866;52.420;10.640;2023-12-07T14:12:04;3.50;99.90
40151;DHT22;25866;52.420;10.640;2023-12-07T14:14:29;3.50;99.90
40151;DHT22;25866;52.420;10.640;2023-12-07T14:16:55;3.50;99.90
40151;DHT22;25866;52.420;10.640;2023-12-07T14:19:21;3.50;99.90
40151;DHT22;25866;52.420;10.640;2023-12-07T14:21:47;3.40;99.90
40151;DHT22;25866;52.420;10.640;2023-12-07T14:24:13;3.50;99.90
40151;DHT22;25866;52.420;10.640;2023-12-07T14:26:42;3.40;99.90
40151;DHT22;25866;52.420;10.640;2023-12-07T14:29:09;3.40;99.90
40151;DHT22;25866;52.420;10.640;2023-12-07T14:31:35;3.40;99.90
40151;DHT22;25866;52.420;10.640;2023-12-07T14:34:03;3.40;99.90
40151;DHT22;25866;52.420;10.640;2023-12-07T14:36:29;3.30;99.90
40151;DHT22;25866;52.420;10.640;2023-12-07T14:38:55;3.30;99.90
40151;DHT22;25866;52.420;10.640;2023-12-07T14:41:20;3.30;99.90
40151;DHT22;25866;52.420;10.640;2023-12-07T14:43:48;3.30;99.90
40151;DHT22;25866;52.420;10.640;2023-12-07T14:46:14;3.30;99.90
40151;DHT22;25866;52.420;10.640;2023-12-07T14:48:40;3.30;99.90
40151;DHT22;25866;52.420;10.640;2023-12-07T14:51:06;3.20;99.90
40151;DHT22;25866;52.420;10.640;2023-12-07T14:53:33;3.20;99.90
40151;DHT22;25866;52.420;10.640;2023-12-07T14:55:59;3.20;99.90
40151;DHT22;25866;52.420;10.640;2023-12-07T14:58:26;3.20;99.90
40151;DHT22;25866;52.420;10.640;2023-12-07T15:00:53;3.20;99.90
40151;DHT22;25866;52.420;10.640;2023-12-07T15:03:19;3.10;99.90
40151;DHT22;25866;52.420;10.640;2023-12-07T15:05:45;3.10;99.90
40151;DHT22;25866;52.420;10.640;2023-12-07T15:08:11;3.10;99.90
40151;DHT22;25866;52.420;10.640;2023-12-07T15:10:37;3.10;99.90
40151;DHT22;25866;52.420;10.640;2023-12-07T15:13:03;3.10;99.90
40151;DHT22;25866;52.420;10.640;2023-12-07T15:15:30;3.10;99.90
40151;DHT22;25866;52.420;10.640;2023-12-07T15:17:56;3.10;99.90
40151;DHT22;25866;52.420;10.640;2023-12-07T15:20:22;3.10;99.90
40151;DHT22;25866;52.420;10.640;2023-12-07T15:22:49;3.10;99.90
40151;DHT22;25866;52.420;10.640;2023-12-07T15:25:15;3.10;99.90
40151;DHT22;25866;52.420;10.640;2023-12-07T15:27:41;3.00;99.90
40151;DHT22;25866;52.420;10.640;2023-12-07T15:30:07;3.00;99.90
40151;DHT22;25866;52.420;10.640;2023-12-07T15:32:35;3.00;99.90
40151;DHT22;25866;52.420;10.640;2023-12-07T15:35:01;3.00;99.90
40151;DHT22;25866;52.420;10.640;2023-12-07T15:37:27;3.00;99.90
40151;DHT22;25866;52.420;10.640;2023-12-07T15:39:53;3.00;99.90
40151;DHT22;25866;52.420;10.640;2023-12-07T15:42:18;3.00;99.90
40151;DHT22;25866;52.420;10.640;2023-12-07T15:44:44;3.00;99.90
40151;DHT22;25866;52.420;10.640;2023-12-07T15:47:10;3.00;99.90
40151;DHT22;25866;52.420;10.640;2023-12-07T15:49:36;3.00;99.90
40151;DHT22;25866;52.420;10.640;2023-12-07T15:52:03;2.90;99.90
40151;DHT22;25866;52.420;10.640;2023-12-07T15:54:31;3.00;99.90
40151;DHT22;25866;52.420;10.640;2023-12-07T15:56:56;2.90;99.90
40151;DHT22;25866;52.420;10.640;2023-12-07T15:59:23;2.90;99.90
40151;DHT22;25866;52.420;10.640;2023-12-07T16:01:50;2.90;99.90
40151;DHT22;25866;52.420;10.640;2023-12-07T16:04:16;2.90;99.90
40151;DHT22;25866;52.420;10.640;2023-12-07T16:06:44;2.90;99.90
40151;DHT22;25866;52.420;10.640;2023-12-07T16:09:10;2.90;99.90
40151;DHT22;25866;52.420;10.640;2023-12-07T16:11:36;2.90;99.90
40151;DHT22;25866;52.420;10.640;2023-12-07T16:14:02;2.90;99.90
40151;DHT22;25866;52.420;10.640;2023-12-07T16:16:27;2.90;99.90
40151;DHT22;25866;52.420;10.640;2023-12-07T16:18:53;2.90;99.90
40151;DHT22;25866;52.420;10.640;2023-12-07T16:21:19;2.90;99.90
40151;DHT22;25866;52.420;10.640;2023-12-07T16:23:48;2.90;99.90
40151;DHT22;25866;52.420;10.640;2023-12-07T16:26:14;2.90;99.90
40151;DHT22;25866;52.420;10.640;2023-12-07T16:28:40;2.90;99.90
40151;DHT22;25866;52.420;10.640;2023-12-07T16:31:06;2.80;99.90
40151;DHT22;25866;52.420;10.640;2023-12-07T16:33:33;2.90;99.90
40151;DHT22;25866;52.420;10.640;2023-12-07T16:35:58;2.80;99.90
40151;DHT22;25866;52.420;10.640;2023-12-07T16:38:24;2.90;99.90
40151;DHT22;25866;52.420;10.640;2023-12-07T16:40:50;2.80;99.90
40151;DHT22;25866;52.420;10.640;2023-12-07T16:43:16;2.80;99.90
40151;DHT22;25866;52.420;10.640;2023-12-07T16:45:41;2.80;99.90
40151;DHT22;25866;52.420;10.640;2023-12-07T16:48:07;2.80;99.90
40151;DHT22;25866;52.420;10.640;2023-12-07T16:50:35;2.80;99.90
40151;DHT22;25866;52.420;10.640;2023-12-07T16:53:01;2.70;99.90
40151;DHT22;25866;52.420;10.640;2023-12-07T16:55:27;2.80;99.90
40151;DHT22;25866;52.420;10.640;2023-12-07T16:57:53;2.80;99.90
40151;DHT22;25866;52.420;10.640;2023-12-07T17:00:19;2.80;99.90
40151;DHT22;25866;52.420;10.640;2023-12-07T17:02:46;2.70;99.90
40151;DHT22;25866;52.420;10.640;2023-12-07T17:05:14;2.70;99.90
40151;DHT22;25866;52.420;10.640;2023-12-07T17:07:40;2.70;99.90
40151;DHT22;25866;52.420;10.640;2023-12-07T17:10:06;2.70;99.90
40151;DHT22;25866;52.420;10.640;2023-12-07T17:12:32;2.70;99.90
40151;DHT22;25866;52.420;10.640;2023-12-07T17:14:57;2.60;99.90
40151;DHT22;25866;52.420;10.640;2023-12-07T17:17:23;2.60;99.90
40151;DHT22;25866;52.420;10.640;2023-12-07T17:19:49;2.60;99.90
40151;DHT22;25866;52.420;10.640;2023-12-07T17:22:15;2.60;99.90
40151;DHT22;25866;52.420;10.640;2023-12-07T17:24:40;2.50;99.90
40151;DHT22;25866;52.420;10.640;2023-12-07T17:27:06;2.50;99.90
40151;DHT22;25866;52.420;10.640;2023-12-07T17:29:32;2.50;99.90
40151;DHT22;25866;52.420;10.640;2023-12-07T17:31:57;2.40;99.90
40151;DHT22;25866;52.420;10.640;2023-12-07T17:34:24;2.40;99.90
40151;DHT22;25866;52.420;10.640;2023-12-07T17:36:51;2.30;99.90
40151;DHT22;25866;52.420;10.640;2023-12-07T17:39:17;2.20;99.90
40151;DHT22;25866;52.420;10.640;2023-12-07T17:41:42;2.20;99.90
40151;DHT22;25866;52.420;10.640;2023-12-07T17:44:09;2.10;99.90
40151;DHT22;25866;52.420;10.640;2023-12-07T17:46:36;2.00;99.90
40151;DHT22;25866;52.420;10.640;2023-12-07T17:49:01;2.00;99.90
40151;DHT22;25866;52.420;10.640;2023-12-07T17:51:27;1.90;99.90
40151;DHT22;25866;52.420;10.640;2023-12-07T17:53:55;1.90;99.90
40151;DHT22;25866;52.420;10.640;2023-12-07T17:56:22;1.90;99.90
40151;DHT22;25866;52.420;10.640;2023-12-07T17:58:47;1.80;99.90
40151;DHT22;25866;52.420;10.640;2023-12-07T18:01:21;1.80;99.90
40151;DHT22;25866;52.420;10.640;2023-12-07T18:03:46;1.80;99.90
40151;DHT22;25866;52.420;10.640;2023-12-07T18:06:12;1.70;99.90
40151;DHT22;25866;52.420;10.640;2023-12-07T18:08:38;1.70;99.90
40151;DHT22;25866;52.420;10.640;2023-12-07T18:11:04;1.70;99.90
40151;DHT22;25866;52.420;10.640;2023-12-07T18:13:30;1.60;99.90
40151;DHT22;25866;52.420;10.640;2023-12-07T18:15:55;1.60;99.90
40151;DHT22;25866;52.420;10.640;2023-12-07T18:18:21;1.60;99.90
40151;DHT22;25866;52.420;10.640;2023-12-07T18:20:47;1.60;99.90
40151;DHT22;25866;52.420;10.640;2023-12-07T18:23:12;1.50;99.90
40151;DHT22;25866;52.420;10.640;2023-12-07T18:25:38;1.50;99.90
40151;DHT22;25866;52.420;10.640;2023-12-07T18:28:04;1.50;99.90
40151;DHT22;25866;52.420;10.640;2023-12-07T18:30:30;1.50;99.90
40151;DHT22;25866;52.420;10.640;2023-12-07T18:32:56;1.50;99.90
40151;DHT22;25866;52.420;10.640;2023-12-07T18:35:22;1.50;99.90
40151;DHT22;25866;52.420;10.640;2023-12-07T18:37:48;1.50;99.90
40151;DHT22;25866;52.420;10.640;2023-12-07T18:40:13;1.50;99.90
40151;DHT22;25866;52.420;10.640;2023-12-07T18:42:39;1.40;99.90
40151;DHT22;25866;52.420;10.640;2023-12-07T18:45:09;1.40;99.90
40151;DHT22;25866;52.420;10.640;2023-12-07T18:47:35;1.40;99.90
40151;DHT22;25866;52.420;10.640;2023-12-07T18:50:01;1.40;99.90
40151;DHT22;25866;52.420;10.640;2023-12-07T18:52:28;1.40;99.90
40151;DHT22;25866;52.420;10.640;2023-12-07T18:54:54;1.40;99.90
40151;DHT22;25866;52.420;10.640;2023-12-07T18:57:20;1.30;99.90
40151;DHT22;25866;52.420;10.640;2023-12-07T18:59:45;1.30;99.90
40151;DHT22;25866;52.420;10.640;2023-12-07T19:02:11;1.30;99.90
40151;DHT22;25866;52.420;10.640;2023-12-07T19:04:37;1.30;99.90
40151;DHT22;25866;52.420;10.640;2023-12-07T19:07:03;1.30;99.90
40151;DHT22;25866;52.420;10.640;2023-12-07T19:09:29;1.20;99.90
40151;DHT22;25866;52.420;10.640;2023-12-07T19:11:54;1.20;99.90
40151;DHT22;25866;52.420;10.640;2023-12-07T19:14:20;1.20;99.90
40151;DHT22;25866;52.420;10.640;2023-12-07T19:16:46;1.20;99.90
40151;DHT22;25866;52.420;10.640;2023-12-07T19:19:12;1.20;99.90
40151;DHT22;25866;52.420;10.640;2023-12-07T19:21:37;1.20;99.90
40151;DHT22;25866;52.420;10.640;2023-12-07T19:24:04;1.20;99.90
40151;DHT22;25866;52.420;10.640;2023-12-07T19:26:30;1.20;99.90
40151;DHT22;25866;52.420;10.640;2023-12-07T19:28:56;1.10;99.90
40151;DHT22;25866;52.420;10.640;2023-12-07T19:31:27;1.10;99.90
40151;DHT22;25866;52.420;10.640;2023-12-07T19:33:53;1.10;99.90
40151;DHT22;25866;52.420;10.640;2023-12-07T19:36:19;1.10;99.90
40151;DHT22;25866;52.420;10.640;2023-12-07T19:38:45;1.10;99.90
40151;DHT22;25866;52.420;10.640;2023-12-07T19:41:11;1.00;99.90
40151;DHT22;25866;52.420;10.640;2023-12-07T19:43:36;1.00;99.90
40151;DHT22;25866;52.420;10.640;2023-12-07T19:46:02;1.00;99.90
40151;DHT22;25866;52.420;10.640;2023-12-07T19:48:28;1.00;99.90
40151;DHT22;25866;52.420;10.640;2023-12-07T19:50:54;1.00;99.90
40151;DHT22;25866;52.420;10.640;2023-12-07T19:53:20;1.00;99.90
40151;DHT22;25866;52.420;10.640;2023-12-07T19:55:46;1.00;99.90
40151;DHT22;25866;52.420;10.640;2023-12-07T19:58:12;1.00;99.90
40151;DHT22;25866;52.420;10.640;2023-12-07T20:00:38;1.00;99.90
40151;DHT22;25866;52.420;10.640;2023-12-07T20:03:04;1.00;99.90
40151;DHT22;25866;52.420;10.640;2023-12-07T20:05:30;0.90;99.90
40151;DHT22;25866;52.420;10.640;2023-12-07T20:07:56;0.90;99.90
40151;DHT22;25866;52.420;10.640;2023-12-07T20:10:23;0.90;99.90
40151;DHT22;25866;52.420;10.640;2023-12-07T20:12:49;0.90;99.90
40151;DHT22;25866;52.420;10.640;2023-12-07T20:15:15;0.90;99.90
40151;DHT22;25866;52.420;10.640;2023-12-07T20:17:41;0.90;99.90
40151;DHT22;25866;52.420;10.640;2023-12-07T20:20:07;0.80;99.90
40151;DHT22;25866;52.420;10.640;2023-12-07T20:22:33;0.80;99.90
40151;DHT22;25866;52.420;10.640;2023-12-07T20:24:59;0.80;99.90
40151;DHT22;25866;52.420;10.640;2023-12-07T20:27:25;0.80;99.90
40151;DHT22;25866;52.420;10.640;2023-12-07T20:29:50;0.80;99.90
40151;DHT22;25866;52.420;10.640;2023-12-07T20:32:17;0.80;99.90
40151;DHT22;25866;52.420;10.640;2023-12-07T20:34:43;0.70;99.90
40151;DHT22;25866;52.420;10.640;2023-12-07T20:37:08;0.70;99.90
40151;DHT22;25866;52.420;10.640;2023-12-07T20:39:34;0.70;99.90
40151;DHT22;25866;52.420;10.640;2023-12-07T20:42:00;0.70;99.90
40151;DHT22;25866;52.420;10.640;2023-12-07T20:44:26;0.60;99.90
40151;DHT22;25866;52.420;10.640;2023-12-07T20:46:51;0.60;99.90
40151;DHT22;25866;52.420;10.640;2023-12-07T20:49:17;0.60;99.90
40151;DHT22;25866;52.420;10.640;2023-12-07T20:51:43;0.60;99.90
40151;DHT22;25866;52.420;10.640;2023-12-07T20:54:09;0.60;99.90
40151;DHT22;25866;52.420;10.640;2023-12-07T20:56:34;0.60;99.90
40151;DHT22;25866;52.420;10.640;2023-12-07T20:59:07;0.60;99.90
40151;DHT22;25866;52.420;10.640;2023-12-07T21:01:32;0.60;99.90
40151;DHT22;25866;52.420;10.640;2023-12-07T21:03:58;0.50;99.90
40151;DHT22;25866;52.420;10.640;2023-12-07T21:06:24;0.60;99.90
40151;DHT22;25866;52.420;10.640;2023-12-07T21:08:49;0.60;99.90
40151;DHT22;25866;52.420;10.640;2023-12-07T21:11:15;0.60;99.90
40151;DHT22;25866;52.420;10.640;2023-12-07T21:13:41;0.50;99.90
40151;DHT22;25866;52.420;10.640;2023-12-07T21:16:07;0.50;99.90